sensor_id;sensor_type;location;lat;lon;timestamp;P1;durP1;ratioP1;P2;durP2;ratioP2
7410;SDS011;3747;48.628;9.058;2023-10-31T00:00:35;1.13;;;0.40;;
7410;SDS011;3747;48.628;9.058;2023-10-31T00:03:02;0.20;;;0.20;;
7410;SDS011;3747;48.628;9.058;2023-10-31T00:05:29;0.93;;;0.30;;
7410;SDS011;3747;48.628;9.058;2023-10-31T00:07:55;0.23;;;0.23;;
7410;SDS011;3747;48.628;9.058;2023-10-31T00:10:22;0.77;;;0.20;;
7410;SDS011;3747;48.628;9.058;2023-10-31T00:12:49;0.50;;;0.17;;
7410;SDS011;3747;48.628;9.058;2023-10-31T00:15:17;0.20;;;0.17;;
7410;SDS011;3747;48.628;9.058;2023-10-31T00:17:44;0.50;;;0.50;;
7410;SDS011;3747;48.628;9.058;2023-10-31T00:20:10;0.20;;;0.20;;
7410;SDS011;3747;48.628;9.058;2023-10-31T00:22:37;0.20;;;0.20;;
7410;SDS011;3747;48.628;9.058;2023-10-31T00:25:04;0.67;;;0.13;;
7410;SDS011;3747;48.628;9.058;2023-10-31T00:27:31;1.37;;;0.30;;
7410;SDS011;3747;48.628;9.058;2023-10-31T00:29:58;0.40;;;0.10;;
7410;SDS011;3747;48.628;9.058;2023-10-31T00:32:26;0.70;;;0.50;;
7410;SDS011;3747;48.628;9.058;2023-10-31T00:34:52;0.20;;;0.20;;
7410;SDS011;3747;48.628;9.058;2023-10-31T00:37:19;0.20;;;0.20;;
7410;SDS011;3747;48.628;9.058;2023-10-31T00:39:46;1.57;;;0.20;;
7410;SDS011;3747;48.628;9.058;2023-10-31T00:42:12;0.33;;;0.20;;
7410;SDS011;3747;48.628;9.058;2023-10-31T00:44:39;0.97;;;0.40;;
7410;SDS011;3747;48.628;9.058;2023-10-31T00:47:06;0.10;;;0.10;;
7410;SDS011;3747;48.628;9.058;2023-10-31T00:49:34;0.33;;;0.27;;
7410;SDS011;3747;48.628;9.058;2023-10-31T00:52:01;0.50;;;0.30;;
7410;SDS011;3747;48.628;9.058;2023-10-31T00:54:28;0.90;;;0.40;;
7410;SDS011;3747;48.628;9.058;2023-10-31T00:56:55;0.10;;;0.10;;
7410;SDS011;3747;48.628;9.058;2023-10-31T00:59:22;1.50;;;0.30;;
7410;SDS011;3747;48.628;9.058;2023-10-31T01:01:49;1.10;;;0.50;;
7410;SDS011;3747;48.628;9.058;2023-10-31T01:04:15;1.30;;;0.20;;
7410;SDS011;3747;48.628;9.058;2023-10-31T01:06:43;0.27;;;0.20;;
7410;SDS011;3747;48.628;9.058;2023-10-31T01:09:10;1.47;;;0.23;;
7410;SDS011;3747;48.628;9.058;2023-10-31T01:11:38;1.00;;;0.13;;
7410;SDS011;3747;48.628;9.058;2023-10-31T01:14:04;1.07;;;0.20;;
7410;SDS011;3747;48.628;9.058;2023-10-31T01:16:31;0.47;;;0.20;;
7410;SDS011;3747;48.628;9.058;2023-10-31T01:18:58;5.73;;;0.57;;
7410;SDS011;3747;48.628;9.058;2023-10-31T01:21:25;0.20;;;0.20;;
7410;SDS011;3747;48.628;9.058;2023-10-31T01:23:53;0.47;;;0.47;;
7410;SDS011;3747;48.628;9.058;2023-10-31T01:26:19;0.10;;;0.10;;
7410;SDS011;3747;48.628;9.058;2023-10-31T01:28:46;0.33;;;0.20;;
7410;SDS011;3747;48.628;9.058;2023-10-31T01:31:13;0.50;;;0.27;;
7410;SDS011;3747;48.628;9.058;2023-10-31T01:33:39;0.50;;;0.50;;
7410;SDS011;3747;48.628;9.058;2023-10-31T01:36:06;0.40;;;0.40;;
7410;SDS011;3747;48.628;9.058;2023-10-31T01:38:35;1.23;;;0.20;;
7410;SDS011;3747;48.628;9.058;2023-10-31T01:41:03;0.30;;;0.30;;
7410;SDS011;3747;48.628;9.058;2023-10-31T01:43:30;0.23;;;0.20;;
7410;SDS011;3747;48.628;9.058;2023-10-31T01:45:58;1.07;;;0.53;;
7410;SDS011;3747;48.628;9.058;2023-10-31T01:48:25;0.43;;;0.43;;
7410;SDS011;3747;48.628;9.058;2023-10-31T01:50:53;0.70;;;0.53;;
7410;SDS011;3747;48.628;9.058;2023-10-31T01:53:21;0.70;;;0.60;;
7410;SDS011;3747;48.628;9.058;2023-10-31T01:55:49;0.80;;;0.50;;
7410;SDS011;3747;48.628;9.058;2023-10-31T01:58:17;2.40;;;0.60;;
7410;SDS011;3747;48.628;9.058;2023-10-31T02:00:46;0.97;;;0.60;;
7410;SDS011;3747;48.628;9.058;2023-10-31T02:03:13;0.30;;;0.30;;
7410;SDS011;3747;48.628;9.058;2023-10-31T02:05:41;0.60;;;0.50;;
7410;SDS011;3747;48.628;9.058;2023-10-31T02:08:08;1.70;;;0.47;;
7410;SDS011;3747;48.628;9.058;2023-10-31T02:10:34;0.83;;;0.30;;
7410;SDS011;3747;48.628;9.058;2023-10-31T02:13:09;0.40;;;0.40;;
7410;SDS011;3747;48.628;9.058;2023-10-31T02:15:38;1.20;;;0.40;;
7410;SDS011;3747;48.628;9.058;2023-10-31T02:18:05;1.63;;;0.30;;
7410;SDS011;3747;48.628;9.058;2023-10-31T02:20:32;0.87;;;0.20;;
7410;SDS011;3747;48.628;9.058;2023-10-31T02:23:00;1.60;;;0.50;;
7410;SDS011;3747;48.628;9.058;2023-10-31T02:25:27;0.73;;;0.30;;
7410;SDS011;3747;48.628;9.058;2023-10-31T02:27:54;1.70;;;0.33;;
7410;SDS011;3747;48.628;9.058;2023-10-31T02:30:20;0.93;;;0.30;;
7410;SDS011;3747;48.628;9.058;2023-10-31T02:32:47;1.83;;;0.30;;
7410;SDS011;3747;48.628;9.058;2023-10-31T02:35:17;0.97;;;0.50;;
7410;SDS011;3747;48.628;9.058;2023-10-31T02:37:44;0.37;;;0.33;;
7410;SDS011;3747;48.628;9.058;2023-10-31T02:40:13;0.30;;;0.30;;
7410;SDS011;3747;48.628;9.058;2023-10-31T02:42:40;1.47;;;0.30;;
7410;SDS011;3747;48.628;9.058;2023-10-31T02:45:07;0.77;;;0.40;;
7410;SDS011;3747;48.628;9.058;2023-10-31T02:47:34;0.80;;;0.40;;
7410;SDS011;3747;48.628;9.058;2023-10-31T02:50:00;0.83;;;0.40;;
7410;SDS011;3747;48.628;9.058;2023-10-31T02:52:27;2.67;;;0.60;;
7410;SDS011;3747;48.628;9.058;2023-10-31T02:54:54;1.70;;;0.50;;
7410;SDS011;3747;48.628;9.058;2023-10-31T02:57:22;1.13;;;0.50;;
7410;SDS011;3747;48.628;9.058;2023-10-31T02:59:48;1.10;;;0.30;;
7410;SDS011;3747;48.628;9.058;2023-10-31T03:02:15;1.60;;;0.40;;
7410;SDS011;3747;48.628;9.058;2023-10-31T03:04:42;1.53;;;0.80;;
7410;SDS011;3747;48.628;9.058;2023-10-31T03:07:08;0.60;;;0.60;;
7410;SDS011;3747;48.628;9.058;2023-10-31T03:09:35;1.57;;;0.50;;
7410;SDS011;3747;48.628;9.058;2023-10-31T03:12:02;1.53;;;0.40;;
7410;SDS011;3747;48.628;9.058;2023-10-31T03:14:30;1.43;;;0.60;;
7410;SDS011;3747;48.628;9.058;2023-10-31T03:16:57;1.20;;;0.40;;
7410;SDS011;3747;48.628;9.058;2023-10-31T03:19:24;0.40;;;0.40;;
7410;SDS011;3747;48.628;9.058;2023-10-31T03:21:50;1.30;;;0.50;;
7410;SDS011;3747;48.628;9.058;2023-10-31T03:24:17;1.50;;;0.47;;
7410;SDS011;3747;48.628;9.058;2023-10-31T03:26:44;0.87;;;0.27;;
7410;SDS011;3747;48.628;9.058;2023-10-31T03:29:10;1.17;;;0.80;;
7410;SDS011;3747;48.628;9.058;2023-10-31T03:31:38;0.97;;;0.50;;
7410;SDS011;3747;48.628;9.058;2023-10-31T03:34:05;0.40;;;0.40;;
7410;SDS011;3747;48.628;9.058;2023-10-31T03:36:32;0.83;;;0.50;;
7410;SDS011;3747;48.628;9.058;2023-10-31T03:38:59;0.40;;;0.40;;
7410;SDS011;3747;48.628;9.058;2023-10-31T03:41:25;0.50;;;0.30;;
7410;SDS011;3747;48.628;9.058;2023-10-31T03:43:52;2.33;;;0.70;;
7410;SDS011;3747;48.628;9.058;2023-10-31T03:46:19;2.37;;;0.63;;
7410;SDS011;3747;48.628;9.058;2023-10-31T03:48:47;0.40;;;0.40;;
7410;SDS011;3747;48.628;9.058;2023-10-31T03:51:13;2.60;;;1.87;;
7410;SDS011;3747;48.628;9.058;2023-10-31T03:53:40;0.60;;;0.50;;
7410;SDS011;3747;48.628;9.058;2023-10-31T03:56:07;0.50;;;0.50;;
7410;SDS011;3747;48.628;9.058;2023-10-31T03:58:33;2.50;;;0.50;;
7410;SDS011;3747;48.628;9.058;2023-10-31T04:01:00;0.50;;;0.40;;
7410;SDS011;3747;48.628;9.058;2023-10-31T04:03:27;0.77;;;0.40;;
7410;SDS011;3747;48.628;9.058;2023-10-31T04:05:55;0.43;;;0.43;;
7410;SDS011;3747;48.628;9.058;2023-10-31T04:08:22;0.40;;;0.23;;
7410;SDS011;3747;48.628;9.058;2023-10-31T04:10:48;0.70;;;0.60;;
7410;SDS011;3747;48.628;9.058;2023-10-31T04:13:15;0.40;;;0.40;;
7410;SDS011;3747;48.628;9.058;2023-10-31T04:15:42;1.03;;;0.37;;
7410;SDS011;3747;48.628;9.058;2023-10-31T04:18:08;1.57;;;0.80;;
7410;SDS011;3747;48.628;9.058;2023-10-31T04:20:35;2.70;;;0.40;;
7410;SDS011;3747;48.628;9.058;2023-10-31T04:23:03;0.70;;;0.40;;
7410;SDS011;3747;48.628;9.058;2023-10-31T04:25:30;0.40;;;0.40;;
7410;SDS011;3747;48.628;9.058;2023-10-31T04:27:57;0.97;;;0.30;;
7410;SDS011;3747;48.628;9.058;2023-10-31T04:30:24;0.20;;;0.20;;
7410;SDS011;3747;48.628;9.058;2023-10-31T04:32:51;2.40;;;0.90;;
7410;SDS011;3747;48.628;9.058;2023-10-31T04:35:18;0.30;;;0.30;;
7410;SDS011;3747;48.628;9.058;2023-10-31T04:37:44;0.57;;;0.40;;
7410;SDS011;3747;48.628;9.058;2023-10-31T04:40:13;0.43;;;0.43;;
7410;SDS011;3747;48.628;9.058;2023-10-31T04:42:40;1.90;;;0.50;;
7410;SDS011;3747;48.628;9.058;2023-10-31T04:45:07;1.13;;;0.30;;
7410;SDS011;3747;48.628;9.058;2023-10-31T04:47:34;0.57;;;0.40;;
7410;SDS011;3747;48.628;9.058;2023-10-31T04:50:01;1.40;;;0.40;;
7410;SDS011;3747;48.628;9.058;2023-10-31T04:52:27;0.50;;;0.50;;
7410;SDS011;3747;48.628;9.058;2023-10-31T04:54:54;0.57;;;0.37;;
7410;SDS011;3747;48.628;9.058;2023-10-31T04:57:23;1.87;;;0.50;;
7410;SDS011;3747;48.628;9.058;2023-10-31T04:59:49;6.33;;;0.60;;
7410;SDS011;3747;48.628;9.058;2023-10-31T05:02:17;0.63;;;0.40;;
7410;SDS011;3747;48.628;9.058;2023-10-31T05:04:44;0.83;;;0.60;;
7410;SDS011;3747;48.628;9.058;2023-10-31T05:07:11;1.37;;;0.70;;
7410;SDS011;3747;48.628;9.058;2023-10-31T05:09:38;0.50;;;0.40;;
7410;SDS011;3747;48.628;9.058;2023-10-31T05:12:07;0.30;;;0.30;;
7410;SDS011;3747;48.628;9.058;2023-10-31T05:14:35;1.67;;;0.43;;
7410;SDS011;3747;48.628;9.058;2023-10-31T05:17:02;1.00;;;0.60;;
7410;SDS011;3747;48.628;9.058;2023-10-31T05:19:29;0.40;;;0.40;;
7410;SDS011;3747;48.628;9.058;2023-10-31T05:21:56;1.80;;;0.30;;
7410;SDS011;3747;48.628;9.058;2023-10-31T05:24:22;1.37;;;0.50;;
7410;SDS011;3747;48.628;9.058;2023-10-31T05:26:49;0.60;;;0.37;;
7410;SDS011;3747;48.628;9.058;2023-10-31T05:29:16;2.10;;;0.47;;
7410;SDS011;3747;48.628;9.058;2023-10-31T05:31:44;0.47;;;0.30;;
7410;SDS011;3747;48.628;9.058;2023-10-31T05:34:10;1.03;;;0.40;;
7410;SDS011;3747;48.628;9.058;2023-10-31T05:36:37;1.33;;;0.30;;
7410;SDS011;3747;48.628;9.058;2023-10-31T05:39:04;0.70;;;0.40;;
7410;SDS011;3747;48.628;9.058;2023-10-31T05:41:33;0.67;;;0.40;;
7410;SDS011;3747;48.628;9.058;2023-10-31T05:44:00;0.30;;;0.30;;
7410;SDS011;3747;48.628;9.058;2023-10-31T05:46:27;0.40;;;0.40;;
7410;SDS011;3747;48.628;9.058;2023-10-31T05:48:55;3.40;;;1.30;;
7410;SDS011;3747;48.628;9.058;2023-10-31T05:51:22;1.27;;;1.17;;
7410;SDS011;3747;48.628;9.058;2023-10-31T05:53:50;2.47;;;0.63;;
7410;SDS011;3747;48.628;9.058;2023-10-31T05:56:17;1.00;;;0.90;;
7410;SDS011;3747;48.628;9.058;2023-10-31T05:58:43;0.93;;;0.80;;
7410;SDS011;3747;48.628;9.058;2023-10-31T06:01:10;0.80;;;0.80;;
7410;SDS011;3747;48.628;9.058;2023-10-31T06:03:37;0.80;;;0.80;;
7410;SDS011;3747;48.628;9.058;2023-10-31T06:06:08;0.83;;;0.83;;
7410;SDS011;3747;48.628;9.058;2023-10-31T06:08:35;0.80;;;0.70;;
7410;SDS011;3747;48.628;9.058;2023-10-31T06:11:02;0.70;;;0.70;;
7410;SDS011;3747;48.628;9.058;2023-10-31T06:13:29;0.90;;;0.90;;
7410;SDS011;3747;48.628;9.058;2023-10-31T06:15:56;0.93;;;0.87;;
7410;SDS011;3747;48.628;9.058;2023-10-31T06:18:24;2.03;;;0.70;;
7410;SDS011;3747;48.628;9.058;2023-10-31T06:20:51;1.87;;;0.80;;
7410;SDS011;3747;48.628;9.058;2023-10-31T06:23:19;4.40;;;0.80;;
7410;SDS011;3747;48.628;9.058;2023-10-31T06:25:46;1.20;;;0.40;;
7410;SDS011;3747;48.628;9.058;2023-10-31T06:28:13;0.43;;;0.43;;
7410;SDS011;3747;48.628;9.058;2023-10-31T06:30:39;0.70;;;0.70;;
7410;SDS011;3747;48.628;9.058;2023-10-31T06:33:06;1.50;;;0.60;;
7410;SDS011;3747;48.628;9.058;2023-10-31T06:35:33;2.83;;;1.00;;
7410;SDS011;3747;48.628;9.058;2023-10-31T06:38:00;1.67;;;0.87;;
7410;SDS011;3747;48.628;9.058;2023-10-31T06:40:28;1.53;;;0.70;;
7410;SDS011;3747;48.628;9.058;2023-10-31T06:42:55;2.63;;;1.00;;
7410;SDS011;3747;48.628;9.058;2023-10-31T06:45:21;0.70;;;0.70;;
7410;SDS011;3747;48.628;9.058;2023-10-31T06:47:48;3.53;;;1.50;;
7410;SDS011;3747;48.628;9.058;2023-10-31T06:50:15;2.30;;;0.60;;
7410;SDS011;3747;48.628;9.058;2023-10-31T06:52:42;0.57;;;0.50;;
7410;SDS011;3747;48.628;9.058;2023-10-31T06:55:08;0.30;;;0.30;;
7410;SDS011;3747;48.628;9.058;2023-10-31T06:57:36;1.17;;;0.40;;
7410;SDS011;3747;48.628;9.058;2023-10-31T07:00:04;1.17;;;0.80;;
7410;SDS011;3747;48.628;9.058;2023-10-31T07:02:33;0.40;;;0.40;;
7410;SDS011;3747;48.628;9.058;2023-10-31T07:05:01;2.00;;;0.60;;
7410;SDS011;3747;48.628;9.058;2023-10-31T07:07:28;0.60;;;0.60;;
7410;SDS011;3747;48.628;9.058;2023-10-31T07:09:55;2.40;;;0.50;;
7410;SDS011;3747;48.628;9.058;2023-10-31T07:12:22;2.40;;;0.50;;
7410;SDS011;3747;48.628;9.058;2023-10-31T07:14:50;0.63;;;0.33;;
7410;SDS011;3747;48.628;9.058;2023-10-31T07:17:16;0.50;;;0.50;;
7410;SDS011;3747;48.628;9.058;2023-10-31T07:19:43;1.20;;;1.10;;
7410;SDS011;3747;48.628;9.058;2023-10-31T07:22:10;0.63;;;0.50;;
7410;SDS011;3747;48.628;9.058;2023-10-31T07:24:36;1.90;;;0.77;;
7410;SDS011;3747;48.628;9.058;2023-10-31T07:27:03;0.70;;;0.70;;
7410;SDS011;3747;48.628;9.058;2023-10-31T07:29:30;0.70;;;0.63;;
7410;SDS011;3747;48.628;9.058;2023-10-31T07:31:58;1.93;;;1.67;;
7410;SDS011;3747;48.628;9.058;2023-10-31T07:34:25;1.13;;;1.10;;
7410;SDS011;3747;48.628;9.058;2023-10-31T07:36:51;1.83;;;0.70;;
7410;SDS011;3747;48.628;9.058;2023-10-31T07:39:18;1.17;;;0.63;;
7410;SDS011;3747;48.628;9.058;2023-10-31T07:41:45;0.30;;;0.30;;
7410;SDS011;3747;48.628;9.058;2023-10-31T07:44:11;0.63;;;0.63;;
7410;SDS011;3747;48.628;9.058;2023-10-31T07:46:38;1.77;;;0.43;;
7410;SDS011;3747;48.628;9.058;2023-10-31T07:49:06;4.73;;;1.03;;
7410;SDS011;3747;48.628;9.058;2023-10-31T07:51:33;0.50;;;0.40;;
7410;SDS011;3747;48.628;9.058;2023-10-31T07:54:00;0.97;;;0.70;;
7410;SDS011;3747;48.628;9.058;2023-10-31T07:56:27;1.00;;;0.60;;
7410;SDS011;3747;48.628;9.058;2023-10-31T07:58:54;1.60;;;0.70;;
7410;SDS011;3747;48.628;9.058;2023-10-31T08:01:22;2.17;;;0.67;;
7410;SDS011;3747;48.628;9.058;2023-10-31T08:03:48;0.50;;;0.37;;
7410;SDS011;3747;48.628;9.058;2023-10-31T08:06:16;1.00;;;0.50;;
7410;SDS011;3747;48.628;9.058;2023-10-31T08:08:43;0.70;;;0.60;;
7410;SDS011;3747;48.628;9.058;2023-10-31T08:11:10;0.60;;;0.40;;
7410;SDS011;3747;48.628;9.058;2023-10-31T08:13:37;0.80;;;0.80;;
7410;SDS011;3747;48.628;9.058;2023-10-31T08:16:16;2.83;;;0.80;;
7410;SDS011;3747;48.628;9.058;2023-10-31T08:18:44;1.70;;;0.77;;
7410;SDS011;3747;48.628;9.058;2023-10-31T08:21:11;2.23;;;0.70;;
7410;SDS011;3747;48.628;9.058;2023-10-31T08:23:39;0.50;;;0.50;;
7410;SDS011;3747;48.628;9.058;2023-10-31T08:26:07;0.80;;;0.70;;
7410;SDS011;3747;48.628;9.058;2023-10-31T08:28:33;1.40;;;1.00;;
7410;SDS011;3747;48.628;9.058;2023-10-31T08:31:00;1.17;;;0.80;;
7410;SDS011;3747;48.628;9.058;2023-10-31T08:33:46;1.23;;;1.13;;
7410;SDS011;3747;48.628;9.058;2023-10-31T08:36:12;2.70;;;0.90;;
7410;SDS011;3747;48.628;9.058;2023-10-31T08:38:40;1.00;;;0.60;;
7410;SDS011;3747;48.628;9.058;2023-10-31T08:41:07;1.40;;;0.90;;
7410;SDS011;3747;48.628;9.058;2023-10-31T08:43:34;1.83;;;0.70;;
7410;SDS011;3747;48.628;9.058;2023-10-31T08:46:00;2.83;;;1.10;;
7410;SDS011;3747;48.628;9.058;2023-10-31T08:48:27;3.07;;;0.70;;
7410;SDS011;3747;48.628;9.058;2023-10-31T08:50:54;0.70;;;0.70;;
7410;SDS011;3747;48.628;9.058;2023-10-31T08:53:20;3.13;;;1.20;;
7410;SDS011;3747;48.628;9.058;2023-10-31T08:55:49;1.30;;;1.10;;
7410;SDS011;3747;48.628;9.058;2023-10-31T08:58:15;3.47;;;1.40;;
7410;SDS011;3747;48.628;9.058;2023-10-31T09:00:43;3.53;;;1.80;;
7410;SDS011;3747;48.628;9.058;2023-10-31T09:03:09;2.50;;;0.97;;
7410;SDS011;3747;48.628;9.058;2023-10-31T09:05:36;1.70;;;1.60;;
7410;SDS011;3747;48.628;9.058;2023-10-31T09:08:03;2.20;;;0.97;;
7410;SDS011;3747;48.628;9.058;2023-10-31T09:10:30;3.17;;;1.50;;
7410;SDS011;3747;48.628;9.058;2023-10-31T09:12:58;3.57;;;1.60;;
7410;SDS011;3747;48.628;9.058;2023-10-31T09:15:25;1.10;;;0.70;;
7410;SDS011;3747;48.628;9.058;2023-10-31T09:17:51;1.30;;;1.10;;
7410;SDS011;3747;48.628;9.058;2023-10-31T09:20:18;1.57;;;0.73;;
7410;SDS011;3747;48.628;9.058;2023-10-31T09:22:45;4.00;;;0.93;;
7410;SDS011;3747;48.628;9.058;2023-10-31T09:25:11;2.57;;;1.43;;
7410;SDS011;3747;48.628;9.058;2023-10-31T09:27:38;3.17;;;1.60;;
7410;SDS011;3747;48.628;9.058;2023-10-31T09:30:08;1.10;;;1.00;;
7410;SDS011;3747;48.628;9.058;2023-10-31T09:32:35;2.43;;;0.80;;
7410;SDS011;3747;48.628;9.058;2023-10-31T09:35:02;0.93;;;0.70;;
7410;SDS011;3747;48.628;9.058;2023-10-31T09:37:30;1.87;;;1.10;;
7410;SDS011;3747;48.628;9.058;2023-10-31T09:39:56;5.97;;;1.07;;
7410;SDS011;3747;48.628;9.058;2023-10-31T09:42:23;6.37;;;1.00;;
7410;SDS011;3747;48.628;9.058;2023-10-31T09:44:50;4.50;;;0.77;;
7410;SDS011;3747;48.628;9.058;2023-10-31T09:47:18;0.97;;;0.70;;
7410;SDS011;3747;48.628;9.058;2023-10-31T09:49:46;3.30;;;1.03;;
7410;SDS011;3747;48.628;9.058;2023-10-31T09:52:13;3.83;;;0.90;;
7410;SDS011;3747;48.628;9.058;2023-10-31T09:54:41;2.27;;;1.03;;
7410;SDS011;3747;48.628;9.058;2023-10-31T09:57:09;2.40;;;1.37;;
7410;SDS011;3747;48.628;9.058;2023-10-31T09:59:36;1.97;;;1.00;;
7410;SDS011;3747;48.628;9.058;2023-10-31T10:02:03;2.80;;;1.30;;
7410;SDS011;3747;48.628;9.058;2023-10-31T10:04:31;6.57;;;1.50;;
7410;SDS011;3747;48.628;9.058;2023-10-31T10:06:59;3.77;;;0.93;;
7410;SDS011;3747;48.628;9.058;2023-10-31T10:09:26;1.87;;;1.00;;
7410;SDS011;3747;48.628;9.058;2023-10-31T10:11:54;5.50;;;1.20;;
7410;SDS011;3747;48.628;9.058;2023-10-31T10:14:22;4.43;;;1.00;;
7410;SDS011;3747;48.628;9.058;2023-10-31T10:16:49;3.67;;;1.00;;
7410;SDS011;3747;48.628;9.058;2023-10-31T10:19:16;4.33;;;1.53;;
7410;SDS011;3747;48.628;9.058;2023-10-31T10:21:51;2.70;;;0.90;;
7410;SDS011;3747;48.628;9.058;2023-10-31T10:24:20;1.20;;;0.80;;
7410;SDS011;3747;48.628;9.058;2023-10-31T10:26:48;1.97;;;0.93;;
7410;SDS011;3747;48.628;9.058;2023-10-31T10:29:15;2.80;;;0.80;;
7410;SDS011;3747;48.628;9.058;2023-10-31T10:31:42;3.23;;;1.00;;
7410;SDS011;3747;48.628;9.058;2023-10-31T10:34:09;2.63;;;1.30;;
7410;SDS011;3747;48.628;9.058;2023-10-31T10:36:37;3.87;;;0.93;;
7410;SDS011;3747;48.628;9.058;2023-10-31T10:39:06;2.63;;;0.80;;
7410;SDS011;3747;48.628;9.058;2023-10-31T10:41:34;3.47;;;0.93;;
7410;SDS011;3747;48.628;9.058;2023-10-31T10:44:06;2.87;;;0.73;;
7410;SDS011;3747;48.628;9.058;2023-10-31T10:46:35;1.83;;;0.93;;
7410;SDS011;3747;48.628;9.058;2023-10-31T10:49:03;2.57;;;0.87;;
7410;SDS011;3747;48.628;9.058;2023-10-31T10:51:39;2.17;;;0.93;;
7410;SDS011;3747;48.628;9.058;2023-10-31T10:54:24;1.53;;;0.70;;
7410;SDS011;3747;48.628;9.058;2023-10-31T10:56:59;2.03;;;0.87;;
7410;SDS011;3747;48.628;9.058;2023-10-31T10:59:34;3.37;;;1.17;;
7410;SDS011;3747;48.628;9.058;2023-10-31T11:02:06;2.47;;;0.80;;
7410;SDS011;3747;48.628;9.058;2023-10-31T11:04:35;1.43;;;0.87;;
7410;SDS011;3747;48.628;9.058;2023-10-31T11:07:03;1.27;;;0.50;;
7410;SDS011;3747;48.628;9.058;2023-10-31T11:09:32;2.20;;;0.93;;
7410;SDS011;3747;48.628;9.058;2023-10-31T11:12:08;0.90;;;0.70;;
7410;SDS011;3747;48.628;9.058;2023-10-31T11:14:36;1.73;;;0.67;;
7410;SDS011;3747;48.628;9.058;2023-10-31T11:17:16;0.63;;;0.40;;
7410;SDS011;3747;48.628;9.058;2023-10-31T11:19:50;0.93;;;0.50;;
7410;SDS011;3747;48.628;9.058;2023-10-31T11:22:19;2.73;;;0.53;;
7410;SDS011;3747;48.628;9.058;2023-10-31T11:24:48;0.73;;;0.43;;
7410;SDS011;3747;48.628;9.058;2023-10-31T11:27:15;1.30;;;0.30;;
7410;SDS011;3747;48.628;9.058;2023-10-31T11:29:43;0.73;;;0.40;;
7410;SDS011;3747;48.628;9.058;2023-10-31T11:32:10;2.20;;;0.70;;
7410;SDS011;3747;48.628;9.058;2023-10-31T11:34:38;0.43;;;0.40;;
7410;SDS011;3747;48.628;9.058;2023-10-31T11:42:52;1.50;;;0.40;;
7410;SDS011;3747;48.628;9.058;2023-10-31T11:45:24;0.47;;;0.30;;
7410;SDS011;3747;48.628;9.058;2023-10-31T11:47:54;2.27;;;0.53;;
7410;SDS011;3747;48.628;9.058;2023-10-31T11:50:22;0.87;;;0.23;;
7410;SDS011;3747;48.628;9.058;2023-10-31T11:52:58;0.87;;;0.40;;
7410;SDS011;3747;48.628;9.058;2023-10-31T11:55:27;0.60;;;0.20;;
7410;SDS011;3747;48.628;9.058;2023-10-31T11:57:54;0.67;;;0.30;;
7410;SDS011;3747;48.628;9.058;2023-10-31T12:00:21;1.20;;;0.27;;
7410;SDS011;3747;48.628;9.058;2023-10-31T12:02:58;0.93;;;0.40;;
7410;SDS011;3747;48.628;9.058;2023-10-31T12:05:26;2.93;;;0.43;;
7410;SDS011;3747;48.628;9.058;2023-10-31T12:07:53;1.37;;;0.30;;
7410;SDS011;3747;48.628;9.058;2023-10-31T12:10:23;0.47;;;0.23;;
7410;SDS011;3747;48.628;9.058;2023-10-31T12:12:53;0.67;;;0.30;;
7410;SDS011;3747;48.628;9.058;2023-10-31T12:15:19;0.20;;;0.20;;
7410;SDS011;3747;48.628;9.058;2023-10-31T12:17:46;0.20;;;0.20;;
7410;SDS011;3747;48.628;9.058;2023-10-31T12:20:13;0.40;;;0.40;;
7410;SDS011;3747;48.628;9.058;2023-10-31T12:22:40;0.30;;;0.30;;
7410;SDS011;3747;48.628;9.058;2023-10-31T12:25:08;0.43;;;0.30;;
7410;SDS011;3747;48.628;9.058;2023-10-31T12:27:42;0.20;;;0.20;;
7410;SDS011;3747;48.628;9.058;2023-10-31T12:30:11;0.90;;;0.20;;
7410;SDS011;3747;48.628;9.058;2023-10-31T12:32:40;0.37;;;0.20;;
7410;SDS011;3747;48.628;9.058;2023-10-31T12:35:08;0.40;;;0.20;;
7410;SDS011;3747;48.628;9.058;2023-10-31T12:37:41;0.20;;;0.20;;
7410;SDS011;3747;48.628;9.058;2023-10-31T12:40:19;0.20;;;0.20;;
7410;SDS011;3747;48.628;9.058;2023-10-31T12:42:47;0.33;;;0.20;;
7410;SDS011;3747;48.628;9.058;2023-10-31T12:45:16;0.10;;;0.10;;
7410;SDS011;3747;48.628;9.058;2023-10-31T12:47:44;0.40;;;0.20;;
7410;SDS011;3747;48.628;9.058;2023-10-31T12:50:12;1.13;;;0.30;;
7410;SDS011;3747;48.628;9.058;2023-10-31T12:52:47;0.43;;;0.30;;
7410;SDS011;3747;48.628;9.058;2023-10-31T12:55:15;0.90;;;0.30;;
7410;SDS011;3747;48.628;9.058;2023-10-31T12:57:42;0.33;;;0.30;;
7410;SDS011;3747;48.628;9.058;2023-10-31T13:00:11;0.87;;;0.20;;
7410;SDS011;3747;48.628;9.058;2023-10-31T13:02:41;0.20;;;0.20;;
7410;SDS011;3747;48.628;9.058;2023-10-31T13:05:09;1.23;;;0.57;;
7410;SDS011;3747;48.628;9.058;2023-10-31T13:07:37;0.30;;;0.20;;
7410;SDS011;3747;48.628;9.058;2023-10-31T13:10:04;1.07;;;0.50;;
7410;SDS011;3747;48.628;9.058;2023-10-31T13:12:31;0.10;;;0.10;;
7410;SDS011;3747;48.628;9.058;2023-10-31T13:14:58;1.70;;;0.53;;
7410;SDS011;3747;48.628;9.058;2023-10-31T13:17:26;0.50;;;0.23;;
7410;SDS011;3747;48.628;9.058;2023-10-31T13:19:54;2.03;;;0.47;;
7410;SDS011;3747;48.628;9.058;2023-10-31T13:22:20;0.57;;;0.27;;
7410;SDS011;3747;48.628;9.058;2023-10-31T13:24:47;0.47;;;0.20;;
7410;SDS011;3747;48.628;9.058;2023-10-31T13:27:14;1.63;;;0.30;;
7410;SDS011;3747;48.628;9.058;2023-10-31T13:29:41;1.90;;;0.20;;
7410;SDS011;3747;48.628;9.058;2023-10-31T13:32:08;0.40;;;0.23;;
7410;SDS011;3747;48.628;9.058;2023-10-31T13:34:35;2.47;;;0.30;;
7410;SDS011;3747;48.628;9.058;2023-10-31T13:37:03;0.47;;;0.30;;
7410;SDS011;3747;48.628;9.058;2023-10-31T13:39:29;0.50;;;0.40;;
7410;SDS011;3747;48.628;9.058;2023-10-31T13:41:56;1.23;;;0.30;;
7410;SDS011;3747;48.628;9.058;2023-10-31T13:44:23;2.47;;;0.40;;
7410;SDS011;3747;48.628;9.058;2023-10-31T13:46:49;0.70;;;0.40;;
7410;SDS011;3747;48.628;9.058;2023-10-31T13:49:15;0.53;;;0.53;;
7410;SDS011;3747;48.628;9.058;2023-10-31T13:51:42;2.13;;;0.40;;
7410;SDS011;3747;48.628;9.058;2023-10-31T13:54:10;0.60;;;0.33;;
7410;SDS011;3747;48.628;9.058;2023-10-31T13:56:37;0.63;;;0.20;;
7410;SDS011;3747;48.628;9.058;2023-10-31T13:59:03;1.13;;;0.20;;
7410;SDS011;3747;48.628;9.058;2023-10-31T14:01:30;0.27;;;0.20;;
7410;SDS011;3747;48.628;9.058;2023-10-31T14:03:57;0.90;;;0.50;;
7410;SDS011;3747;48.628;9.058;2023-10-31T14:06:23;0.80;;;0.20;;
7410;SDS011;3747;48.628;9.058;2023-10-31T14:08:55;0.60;;;0.30;;
7410;SDS011;3747;48.628;9.058;2023-10-31T14:11:23;0.20;;;0.20;;
7410;SDS011;3747;48.628;9.058;2023-10-31T14:13:50;0.60;;;0.50;;
7410;SDS011;3747;48.628;9.058;2023-10-31T14:16:17;0.80;;;0.40;;
7410;SDS011;3747;48.628;9.058;2023-10-31T14:18:44;0.40;;;0.40;;
7410;SDS011;3747;48.628;9.058;2023-10-31T14:21:11;1.03;;;0.10;;
7410;SDS011;3747;48.628;9.058;2023-10-31T14:23:38;0.33;;;0.23;;
7410;SDS011;3747;48.628;9.058;2023-10-31T14:26:04;0.20;;;0.20;;
7410;SDS011;3747;48.628;9.058;2023-10-31T14:28:33;0.70;;;0.40;;
7410;SDS011;3747;48.628;9.058;2023-10-31T14:31:00;0.30;;;0.20;;
7410;SDS011;3747;48.628;9.058;2023-10-31T14:33:26;1.07;;;0.30;;
7410;SDS011;3747;48.628;9.058;2023-10-31T14:35:54;0.40;;;0.40;;
7410;SDS011;3747;48.628;9.058;2023-10-31T14:38:21;1.33;;;0.50;;
7410;SDS011;3747;48.628;9.058;2023-10-31T14:40:48;0.87;;;0.43;;
7410;SDS011;3747;48.628;9.058;2023-10-31T14:43:14;0.50;;;0.50;;
7410;SDS011;3747;48.628;9.058;2023-10-31T14:45:44;0.70;;;0.50;;
7410;SDS011;3747;48.628;9.058;2023-10-31T14:48:11;2.40;;;0.40;;
7410;SDS011;3747;48.628;9.058;2023-10-31T14:50:38;1.13;;;0.50;;
7410;SDS011;3747;48.628;9.058;2023-10-31T14:53:04;1.77;;;0.30;;
7410;SDS011;3747;48.628;9.058;2023-10-31T14:55:31;1.80;;;0.40;;
7410;SDS011;3747;48.628;9.058;2023-10-31T14:57:58;1.90;;;0.53;;
7410;SDS011;3747;48.628;9.058;2023-10-31T15:00:25;0.33;;;0.33;;
7410;SDS011;3747;48.628;9.058;2023-10-31T15:02:53;0.87;;;0.30;;
7410;SDS011;3747;48.628;9.058;2023-10-31T15:05:19;1.13;;;0.20;;
7410;SDS011;3747;48.628;9.058;2023-10-31T15:07:48;0.93;;;0.40;;
7410;SDS011;3747;48.628;9.058;2023-10-31T15:10:14;0.40;;;0.33;;
7410;SDS011;3747;48.628;9.058;2023-10-31T15:12:42;0.43;;;0.40;;
7410;SDS011;3747;48.628;9.058;2023-10-31T15:15:09;1.67;;;0.77;;
7410;SDS011;3747;48.628;9.058;2023-10-31T15:17:37;0.40;;;0.30;;
7410;SDS011;3747;48.628;9.058;2023-10-31T15:20:06;0.83;;;0.67;;
7410;SDS011;3747;48.628;9.058;2023-10-31T15:22:34;1.83;;;0.50;;